sensor_id;sensor_type;location;lat;lon;timestamp;pressure;altitude;pressure_sealevel;temperature;humidity
25650;BME280;13505;45.196;5.696;2023-01-26T05:01:28;99503.41;;;3.57;66.61
25650;BME280;13505;45.196;5.696;2023-01-26T05:06:19;99499.97;;;3.53;66.41
25650;BME280;13505;45.196;5.696;2023-01-26T05:11:09;99498.28;;;3.51;66.26
25650;BME280;13505;45.196;5.696;2023-01-26T05:16:03;99489.56;;;3.50;66.56
25650;BME280;13505;45.196;5.696;2023-01-26T05:20:55;99487.75;;;3.57;66.50
25650;BME280;13505;45.196;5.696;2023-01-26T05:25:45;99480.75;;;3.60;66.14
25650;BME280;13505;45.196;5.696;2023-01-26T05:30:35;99477.34;;;3.54;65.80
25650;BME280;13505;45.196;5.696;2023-01-26T05:35:26;99486.03;;;3.54;65.70
25650;BME280;13505;45.196;5.696;2023-01-26T05:40:16;99486.09;;;3.49;66.47
25650;BME280;13505;45.196;5.696;2023-01-26T05:45:07;99471.25;;;3.53;66.11
25650;BME280;13505;45.196;5.696;2023-01-26T05:49:57;99470.38;;;3.57;66.05
25650;BME280;13505;45.196;5.696;2023-01-26T05:54:48;99468.63;;;3.56;65.51
25650;BME280;13505;45.196;5.696;2023-01-26T05:59:38;99474.75;;;3.52;65.55
25650;BME280;13505;45.196;5.696;2023-01-26T06:04:29;99474.84;;;3.46;66.90
25650;BME280;13505;45.196;5.696;2023-01-26T06:09:19;99475.00;;;3.99;71.65
25650;BME280;13505;45.196;5.696;2023-01-26T06:14:10;99466.34;;;3.96;67.02
25650;BME280;13505;45.196;5.696;2023-01-26T06:19:00;99470.22;;;3.68;65.45
25650;BME280;13505;45.196;5.696;2023-01-26T06:23:50;99466.88;;;3.58;65.96
25650;BME280;13505;45.196;5.696;2023-01-26T06:28:41;99462.66;;;3.46;66.66
25650;BME280;13505;45.196;5.696;2023-01-26T06:33:33;99457.28;;;3.59;65.56
25650;BME280;13505;45.196;5.696;2023-01-26T06:38:24;99457.28;;;3.59;66.54
25650;BME280;13505;45.196;5.696;2023-01-26T06:43:14;99452.19;;;3.49;66.45
25650;BME280;13505;45.196;5.696;2023-01-26T06:48:04;99453.84;;;3.57;65.87
25650;BME280;13505;45.196;5.696;2023-01-26T06:52:55;99460.19;;;3.34;66.63
25650;BME280;13505;45.196;5.696;2023-01-26T06:57:47;99459.06;;;3.57;66.49
25650;BME280;13505;45.196;5.696;2023-01-26T07:02:38;99454.78;;;3.49;66.75
25650;BME280;13505;45.196;5.696;2023-01-26T07:07:29;99439.16;;;3.48;66.60
25650;BME280;13505;45.196;5.696;2023-01-26T07:12:19;99448.66;;;3.54;66.16
25650;BME280;13505;45.196;5.696;2023-01-26T07:17:10;99448.31;;;3.79;67.91
25650;BME280;13505;45.196;5.696;2023-01-26T07:22:00;99434.50;;;3.72;65.15
25650;BME280;13505;45.196;5.696;2023-01-26T07:26:51;99439.94;;;3.56;65.22
25650;BME280;13505;45.196;5.696;2023-01-26T07:31:41;99441.63;;;3.59;65.52
25650;BME280;13505;45.196;5.696;2023-01-26T07:36:33;99440.13;;;3.41;64.32
25650;BME280;13505;45.196;5.696;2023-01-26T07:41:23;99434.78;;;3.50;64.71
25650;BME280;13505;45.196;5.696;2023-01-26T07:46:14;99432.06;;;3.59;64.53
25650;BME280;13505;45.196;5.696;2023-01-26T07:51:04;99432.03;;;3.62;65.36
25650;BME280;13505;45.196;5.696;2023-01-26T07:56:10;99425.13;;;3.58;65.32
25650;BME280;13505;45.196;5.696;2023-01-26T08:01:09;99427.88;;;3.47;64.52
25650;BME280;13505;45.196;5.696;2023-01-26T08:06:00;99428.84;;;3.40;64.80
25650;BME280;13505;45.196;5.696;2023-01-26T08:10:50;99427.84;;;3.49;64.50
25650;BME280;13505;45.196;5.696;2023-01-26T08:15:40;99427.03;;;3.44;64.14
25650;BME280;13505;45.196;5.696;2023-01-26T08:20:31;99426.09;;;3.51;65.00
25650;BME280;13505;45.196;5.696;2023-01-26T08:25:21;99415.25;;;3.15;64.80
25650;BME280;13505;45.196;5.696;2023-01-26T08:30:12;99418.31;;;3.46;64.76
25650;BME280;13505;45.196;5.696;2023-01-26T08:35:02;99421.75;;;3.50;64.10
25650;BME280;13505;45.196;5.696;2023-01-26T08:39:53;99427.16;;;3.34;64.72
25650;BME280;13505;45.196;5.696;2023-01-26T08:44:43;99419.16;;;3.48;64.29
25650;BME280;13505;45.196;5.696;2023-01-26T08:49:33;99415.53;;;3.60;64.44
25650;BME280;13505;45.196;5.696;2023-01-26T08:54:24;99418.09;;;3.63;64.01
25650;BME280;13505;45.196;5.696;2023-01-26T08:59:14;99427.75;;;3.57;64.16
25650;BME280;13505;45.196;5.696;2023-01-26T09:04:04;99426.78;;;3.64;63.64
25650;BME280;13505;45.196;5.696;2023-01-26T09:08:55;99427.69;;;3.60;64.88
25650;BME280;13505;45.196;5.696;2023-01-26T09:13:49;99428.50;;;3.67;64.64
25650;BME280;13505;45.196;5.696;2023-01-26T09:18:48;99428.50;;;3.67;63.71
25650;BME280;13505;45.196;5.696;2023-01-26T09:23:39;99432.06;;;3.59;63.67
25650;BME280;13505;45.196;5.696;2023-01-26T09:28:29;99423.31;;;3.63;63.70
25650;BME280;13505;45.196;5.696;2023-01-26T09:33:20;99431.88;;;3.73;62.86
25650;BME280;13505;45.196;5.696;2023-01-26T09:38:12;99427.56;;;3.69;63.29
25650;BME280;13505;45.196;5.696;2023-01-26T09:53:42;99432.66;;;3.80;62.37
25650;BME280;13505;45.196;5.696;2023-01-26T09:58:37;99436.88;;;3.87;62.05
25650;BME280;13505;45.196;5.696;2023-01-26T10:03:45;99436.88;;;3.89;61.66
25650;BME280;13505;45.196;5.696;2023-01-26T10:08:37;99435.09;;;3.91;61.45
25650;BME280;13505;45.196;5.696;2023-01-26T10:13:28;99436.03;;;3.88;61.11
25650;BME280;13505;45.196;5.696;2023-01-26T10:18:31;99436.94;;;3.86;61.02
25650;BME280;13505;45.196;5.696;2023-01-26T10:23:27;99436.88;;;3.87;60.45
25650;BME280;13505;45.196;5.696;2023-01-26T10:33:17;99434.19;;;3.95;61.42
25650;BME280;13505;45.196;5.696;2023-01-26T10:43:23;99432.25;;;4.08;60.24
25650;BME280;13505;45.196;5.696;2023-01-26T10:48:19;99420.13;;;4.04;59.81
25650;BME280;13505;45.196;5.696;2023-01-26T10:53:18;99426.16;;;4.08;58.60
25650;BME280;13505;45.196;5.696;2023-01-26T11:03:41;99417.44;;;4.09;57.14
25650;BME280;13505;45.196;5.696;2023-01-26T11:08:37;99423.56;;;4.08;57.93
25650;BME280;13505;45.196;5.696;2023-01-26T11:13:28;99423.63;;;4.03;56.20
25650;BME280;13505;45.196;5.696;2023-01-26T11:29:01;99414.84;;;4.07;56.20
25650;BME280;13505;45.196;5.696;2023-01-26T11:43:57;99385.97;;;4.18;56.62
25650;BME280;13505;45.196;5.696;2023-01-26T11:49:22;99391.34;;;4.07;55.92
25650;BME280;13505;45.196;5.696;2023-01-26T11:59:33;99386.81;;;4.18;56.63
25650;BME280;13505;45.196;5.696;2023-01-26T12:04:25;99376.28;;;4.26;56.01
25650;BME280;13505;45.196;5.696;2023-01-26T12:09:31;99372.69;;;4.32;57.62
25650;BME280;13505;45.196;5.696;2023-01-26T12:14:30;99373.81;;;4.17;58.02
25650;BME280;13505;45.196;5.696;2023-01-26T12:24:37;99359.72;;;4.26;58.67
25650;BME280;13505;45.196;5.696;2023-01-26T12:29:46;99361.44;;;4.27;59.42
25650;BME280;13505;45.196;5.696;2023-01-26T12:34:39;99351.88;;;4.27;59.13
25650;BME280;13505;45.196;5.696;2023-01-26T12:39:47;99351.00;;;4.28;59.26
25650;BME280;13505;45.196;5.696;2023-01-26T12:44:43;99340.47;;;4.33;59.88
25650;BME280;13505;45.196;5.696;2023-01-26T12:49:42;99336.09;;;4.33;59.18
25650;BME280;13505;45.196;5.696;2023-01-26T12:54:50;99334.38;;;4.32;59.63
25650;BME280;13505;45.196;5.696;2023-01-26T12:59:45;99318.75;;;4.29;58.67
25650;BME280;13505;45.196;5.696;2023-01-26T13:04:35;99321.38;;;4.28;59.77
25650;BME280;13505;45.196;5.696;2023-01-26T13:09:26;99318.75;;;4.31;59.50
25650;BME280;13505;45.196;5.696;2023-01-26T13:34:15;99303.97;;;4.28;61.15
25650;BME280;13505;45.196;5.696;2023-01-26T13:39:37;99303.16;;;4.25;59.62
25650;BME280;13505;45.196;5.696;2023-01-26T13:44:35;99303.34;;;4.15;60.19
25650;BME280;13505;45.196;5.696;2023-01-26T13:49:38;99305.81;;;4.23;60.29
25650;BME280;13505;45.196;5.696;2023-01-26T13:54:29;99297.84;;;4.31;60.73
25650;BME280;13505;45.196;5.696;2023-01-26T13:59:19;99296.06;;;4.33;60.64
25650;BME280;13505;45.196;5.696;2023-01-26T14:04:30;99293.38;;;4.36;60.86
25650;BME280;13505;45.196;5.696;2023-01-26T14:09:21;99290.72;;;4.39;60.70
25650;BME280;13505;45.196;5.696;2023-01-26T14:14:23;99286.28;;;4.43;60.21
25650;BME280;13505;45.196;5.696;2023-01-26T14:19:16;99281.06;;;4.43;60.06
25650;BME280;13505;45.196;5.696;2023-01-26T14:24:08;99281.06;;;4.43;60.59
25650;BME280;13505;45.196;5.696;2023-01-26T14:28:59;99282.84;;;4.42;60.40
25650;BME280;13505;45.196;5.696;2023-01-26T14:33:52;99278.44;;;4.44;59.93
25650;BME280;13505;45.196;5.696;2023-01-26T14:38:48;99276.75;;;4.42;59.71
25650;BME280;13505;45.196;5.696;2023-01-26T14:43:39;99285.44;;;4.42;59.74
25650;BME280;13505;45.196;5.696;2023-01-26T14:53:39;99279.34;;;4.43;59.48
25650;BME280;13505;45.196;5.696;2023-01-26T14:58:32;99283.66;;;4.44;60.00
25650;BME280;13505;45.196;5.696;2023-01-26T15:03:36;99281.94;;;4.43;58.82
25650;BME280;13505;45.196;5.696;2023-01-26T15:08:27;99275.84;;;4.43;60.09
25650;BME280;13505;45.196;5.696;2023-01-26T15:13:21;99270.69;;;4.40;59.13
25650;BME280;13505;45.196;5.696;2023-01-26T15:23:29;99280.31;;;4.36;59.06
25650;BME280;13505;45.196;5.696;2023-01-26T15:28:24;99275.09;;;4.38;58.92
25650;BME280;13505;45.196;5.696;2023-01-26T15:38:26;99281.06;;;4.43;59.07
25650;BME280;13505;45.196;5.696;2023-01-26T15:43:18;99282.94;;;4.38;59.69
25650;BME280;13505;45.196;5.696;2023-01-26T15:48:10;99275.94;;;4.38;59.52
25650;BME280;13505;45.196;5.696;2023-01-26T15:53:00;99279.44;;;4.37;59.30
25650;BME280;13505;45.196;5.696;2023-01-26T15:57:50;99271.69;;;4.32;59.25
25650;BME280;13505;45.196;5.696;2023-01-26T16:02:41;99279.59;;;4.29;58.30
25650;BME280;13505;45.196;5.696;2023-01-26T16:07:31;99274.34;;;4.31;58.30
25650;BME280;13505;45.196;5.696;2023-01-26T16:12:22;99267.38;;;4.30;58.80
25650;BME280;13505;45.196;5.696;2023-01-26T16:17:14;99271.84;;;4.25;59.16
25650;BME280;13505;45.196;5.696;2023-01-26T16:22:04;99281.31;;;4.29;59.01
25650;BME280;13505;45.196;5.696;2023-01-26T16:26:54;99270.06;;;4.27;59.11
25650;BME280;13505;45.196;5.696;2023-01-26T16:31:45;99270.09;;;4.25;59.37
25650;BME280;13505;45.196;5.696;2023-01-26T16:36:35;99277.94;;;4.25;59.64
25650;BME280;13505;45.196;5.696;2023-01-26T16:41:28;99283.25;;;4.21;59.85
25650;BME280;13505;45.196;5.696;2023-01-26T16:46:20;99281.56;;;4.16;60.47
25650;BME280;13505;45.196;5.696;2023-01-26T16:51:16;99286.75;;;4.18;59.41
25650;BME280;13505;45.196;5.696;2023-01-26T16:56:09;99277.97;;;4.22;59.62
25650;BME280;13505;45.196;5.696;2023-01-26T17:01:00;99293.69;;;4.19;59.82
25650;BME280;13505;45.196;5.696;2023-01-26T17:05:51;99285.00;;;4.18;59.24
25650;BME280;13505;45.196;5.696;2023-01-26T17:10:41;99287.81;;;4.08;57.63
25650;BME280;13505;45.196;5.696;2023-01-26T17:15:31;99285.13;;;4.12;58.34
25650;BME280;13505;45.196;5.696;2023-01-26T17:20:22;99299.69;;;4.24;61.69
25650;BME280;13505;45.196;5.696;2023-01-26T17:25:13;99289.53;;;4.56;59.46
25650;BME280;13505;45.196;5.696;2023-01-26T17:30:04;99285.69;;;4.75;58.71
25650;BME280;13505;45.196;5.696;2023-01-26T17:34:55;99293.63;;;4.69;57.54
25650;BME280;13505;45.196;5.696;2023-01-26T17:39:45;99284.75;;;4.32;57.29
25650;BME280;13505;45.196;5.696;2023-01-26T17:44:36;99297.13;;;4.23;57.52
25650;BME280;13505;45.196;5.696;2023-01-26T17:49:26;99299.16;;;4.05;57.82
25650;BME280;13505;45.196;5.696;2023-01-26T17:54:16;99293.00;;;4.09;58.17
25650;BME280;13505;45.196;5.696;2023-01-26T17:59:07;99294.22;;;3.88;58.86
25650;BME280;13505;45.196;5.696;2023-01-26T18:03:58;99300.19;;;3.96;59.98
25650;BME280;13505;45.196;5.696;2023-01-26T18:08:48;99297.44;;;4.04;59.81
25650;BME280;13505;45.196;5.696;2023-01-26T18:13:39;99305.41;;;3.96;61.24
25650;BME280;13505;45.196;5.696;2023-01-26T18:18:30;99305.34;;;3.99;62.04
25650;BME280;13505;45.196;5.696;2023-01-26T18:23:21;99293.03;;;4.08;61.38
25650;BME280;13505;45.196;5.696;2023-01-26T18:28:13;99293.25;;;3.94;61.94
25650;BME280;13505;45.196;5.696;2023-01-26T18:33:04;99301.16;;;3.89;62.21
25650;BME280;13505;45.196;5.696;2023-01-26T18:37:55;99289.75;;;3.96;62.21
25650;BME280;13505;45.196;5.696;2023-01-26T18:42:45;99292.28;;;4.01;62.44
25650;BME280;13505;45.196;5.696;2023-01-26T18:47:36;99281.78;;;4.02;62.62
25650;BME280;13505;45.196;5.696;2023-01-26T18:52:26;99288.03;;;3.95;62.97
25650;BME280;13505;45.196;5.696;2023-01-26T18:57:17;99283.84;;;3.85;63.69
25650;BME280;13505;45.196;5.696;2023-01-26T19:02:10;99277.69;;;3.89;64.74
25650;BME280;13505;45.196;5.696;2023-01-26T19:07:02;99281.13;;;3.91;64.05
25650;BME280;13505;45.196;5.696;2023-01-26T19:11:52;99289.97;;;3.81;65.03
25650;BME280;13505;45.196;5.696;2023-01-26T19:16:43;99286.34;;;3.91;65.02
25650;BME280;13505;45.196;5.696;2023-01-26T19:21:36;99275.91;;;3.91;65.11
25650;BME280;13505;45.196;5.696;2023-01-26T19:26:27;99270.69;;;3.91;65.19
25650;BME280;13505;45.196;5.696;2023-01-26T19:31:19;99276.31;;;3.66;65.84
25650;BME280;13505;45.196;5.696;2023-01-26T19:36:09;99277.28;;;3.60;67.08
25650;BME280;13505;45.196;5.696;2023-01-26T19:41:00;99275.63;;;3.55;67.90
25650;BME280;13505;45.196;5.696;2023-01-26T19:45:53;99284.84;;;3.76;67.21
25650;BME280;13505;45.196;5.696;2023-01-26T19:50:44;99283.16;;;3.73;67.16
25650;BME280;13505;45.196;5.696;2023-01-26T19:55:34;99271.16;;;3.61;68.29
25650;BME280;13505;45.196;5.696;2023-01-26T20:00:24;99293.06;;;3.49;69.59
25650;BME280;13505;45.196;5.696;2023-01-26T20:05:15;99279.91;;;3.59;69.67
25650;BME280;13505;45.196;5.696;2023-01-26T20:10:07;99280.06;;;3.48;70.09
25650;BME280;13505;45.196;5.696;2023-01-26T20:14:59;99280.91;;;3.48;70.17
25650;BME280;13505;45.196;5.696;2023-01-26T20:19:55;99280.09;;;3.45;70.45
25650;BME280;13505;45.196;5.696;2023-01-26T20:24:50;99284.25;;;3.58;70.29
25650;BME280;13505;45.196;5.696;2023-01-26T20:29:50;99281.66;;;3.57;70.50
25650;BME280;13505;45.196;5.696;2023-01-26T20:34:42;99284.53;;;3.41;71.54
25650;BME280;13505;45.196;5.696;2023-01-26T20:39:36;99280.06;;;3.48;72.18
25650;BME280;13505;45.196;5.696;2023-01-26T20:44:28;99285.22;;;3.53;71.16
25650;BME280;13505;45.196;5.696;2023-01-26T20:49:22;99278.34;;;3.47;71.12
25650;BME280;13505;45.196;5.696;2023-01-26T20:54:18;99277.47;;;3.46;71.19
25650;BME280;13505;45.196;5.696;2023-01-26T20:59:12;99282.94;;;3.31;71.56
25650;BME280;13505;45.196;5.696;2023-01-26T21:04:04;99274.03;;;3.46;71.02
25650;BME280;13505;45.196;5.696;2023-01-26T21:08:59;99267.91;;;3.47;71.24
25650;BME280;13505;45.196;5.696;2023-01-26T21:13:59;99267.19;;;3.37;71.06
25650;BME280;13505;45.196;5.696;2023-01-26T21:18:55;99267.19;;;3.37;71.77
25650;BME280;13505;45.196;5.696;2023-01-26T21:23:48;99260.72;;;3.63;72.01
25650;BME280;13505;45.196;5.696;2023-01-26T21:28:40;99259.84;;;3.61;71.02
25650;BME280;13505;45.196;5.696;2023-01-26T21:33:32;99262.97;;;3.30;71.65
25650;BME280;13505;45.196;5.696;2023-01-26T21:38:23;99260.31;;;3.31;71.53
25650;BME280;13505;45.196;5.696;2023-01-26T21:43:14;99253.44;;;3.26;71.75
25650;BME280;13505;45.196;5.696;2023-01-26T21:48:08;99246.44;;;3.31;71.32
25650;BME280;13505;45.196;5.696;2023-01-26T21:53:16;99250.84;;;3.26;71.49
25650;BME280;13505;45.196;5.696;2023-01-26T21:58:07;99245.56;;;3.29;71.45
25650;BME280;13505;45.196;5.696;2023-01-26T22:03:16;99251.78;;;3.20;71.18
25650;BME280;13505;45.196;5.696;2023-01-26T22:08:06;99257.94;;;3.16;71.82
25650;BME280;13505;45.196;5.696;2023-01-26T22:12:57;99249.19;;;3.18;71.48
25650;BME280;13505;45.196;5.696;2023-01-26T22:17:47;99257.06;;;3.17;72.06
25650;BME280;13505;45.196;5.696;2023-01-26T22:22:37;99256.31;;;3.09;71.86
25650;BME280;13505;45.196;5.696;2023-01-26T22:27:28;99260.63;;;3.10;71.77
25650;BME280;13505;45.196;5.696;2023-01-26T22:32:18;99257.97;;;3.14;72.07
25650;BME280;13505;45.196;5.696;2023-01-26T22:37:09;99252.69;;;3.17;71.60
25650;BME280;13505;45.196;5.696;2023-01-26T22:41:59;99248.34;;;3.19;71.34
25650;BME280;13505;45.196;5.696;2023-01-26T22:46:49;99247.53;;;3.16;71.34
25650;BME280;13505;45.196;5.696;2023-01-26T22:51:41;99246.78;;;3.06;71.76
25650;BME280;13505;45.196;5.696;2023-01-26T22:56:32;99244.16;;;3.09;71.97
